Spirit Of New York — WCW9332 — position and weather

sailwx.info

Track history (hours):
 
Tides and Currents Weather Stations Pressure Air Temp Water Temp Dewpoint Dewpoint Depression Visibility Wind Speed Wind Dir Waves Ship Positions

Spirit Of New York

Owner: SPIRIT CRUISES LLC, NEW YORK, NY. More information available from US FCC via Universal Licensing System and Coast Guard Vessel Documentation Center.

Last reported at 2016-Dec-08 02:31 UTC. Time now 2016-Dec-08 14:20 UTC.
Position N 40°45' W 074°01'.

Length 62 m.

Type: Passenger vessel. MMSI: 338897000.

Date/timePositionNaut miles runAvg speedWind from/ knotsBaromVisibWave heightAir tempDewpointWater temp
2016-Dec-08 02:31N 40°45' W 074°01'0 0.3
2016-Dec-08 01:34N 40°45' W 074°01'3 3.0
2016-Dec-08 00:33N 40°42' W 074°02'3 3.2
2016-Dec-07 23:34N 40°45' W 074°01'1 0.8
2016-Dec-07 22:34N 40°46' W 074°01'  
2016-Dec-05 02:25N 40°45' W 074°01'4 4.2
2016-Dec-05 01:33N 40°41' W 074°02'3 2.6
2016-Dec-05 00:33N 40°44' W 074°01'1 1.1
2016-Dec-04 23:33N 40°45' W 074°01'0 0.0
2016-Dec-04 03:25N 40°45' W 074°01'1 0.8
2016-Dec-04 02:33N 40°44' W 074°01'2 2.4
2016-Dec-04 01:33N 40°42' W 074°01'4 4.0
2016-Dec-04 00:33N 40°46' W 074°00'1 1.0
2016-Dec-03 23:33N 40°45' W 074°01'0 0.0
2016-Dec-03 22:34N 40°45' W 074°01'0 0.0
2016-Dec-03 21:33N 40°45' W 074°01'0 0.0
2016-Dec-03 20:33N 40°45' W 074°01'0 0.0
2016-Dec-03 19:33N 40°45' W 074°01'1 0.9
2016-Dec-03 18:34N 40°44' W 074°01'2 2.3
2016-Dec-03 17:34N 40°42' W 074°01'3 3.1
2016-Dec-03 16:34N 40°45' W 074°01'0 0.0
2016-Dec-03 15:34N 40°45' W 074°01'0 0.0
2016-Dec-03 14:34N 40°45' W 074°01'0 0.0
2016-Dec-03 02:23N 40°45' W 074°01'4 4.6
2016-Dec-03 01:34N 40°41' W 074°02'2 2.4
2016-Dec-03 00:33N 40°44' W 074°01'1 1.4
2016-Dec-02 23:34N 40°45' W 074°01'0 0.0
2016-Dec-02 22:34N 40°45' W 074°01'0 0.0
2016-Dec-02 02:26N 40°45' W 074°01'4 4.3
2016-Dec-02 01:34N 40°41' W 074°02'2 2.3
2016-Dec-02 00:33N 40°43' W 074°01'1 1.5
2016-Dec-01 23:34N 40°45' W 074°01'0 0.0
2016-Dec-01 22:33N 40°45' W 074°01'0 0.0
2016-Dec-01 21:34N 40°45' W 074°01'0 0.0
2016-Dec-01 20:33N 40°45' W 074°01'0 0.0
2016-Dec-01 19:33N 40°45' W 074°01'1 1.0
2016-Dec-01 18:34N 40°44' W 074°01'2 1.6
2016-Dec-01 17:34N 40°42' W 074°01'3 2.6
2016-Dec-01 16:34N 40°45' W 074°01'  
Track history (hours):
 
Tides and Currents Weather Stations Pressure Air Temp Water Temp Dewpoint Dewpoint Depression Visibility Wind Speed Wind Dir Waves Ship Positions

Spirit Of New York

Owner: SPIRIT CRUISES LLC, NEW YORK, NY. More information available from US FCC via Universal Licensing System and Coast Guard Vessel Documentation Center.

Last reported at 2016-Dec-08 02:31 UTC. Time now 2016-Dec-08 14:20 UTC.
Position N 40°45' W 074°01'.

Length 62 m.

Type: Passenger vessel. MMSI: 338897000.

Date/timePositionNaut miles runAvg speedWind from/ knotsBaromVisibWave heightAir tempDewpointWater temp
2016-Dec-08 02:31N 40°45' W 074°01'0 0.3
2016-Dec-08 01:34N 40°45' W 074°01'3 3.0
2016-Dec-08 00:33N 40°42' W 074°02'3 3.2
2016-Dec-07 23:34N 40°45' W 074°01'1 0.8
2016-Dec-07 22:34N 40°46' W 074°01'  
2016-Dec-05 02:25N 40°45' W 074°01'4 4.2
2016-Dec-05 01:33N 40°41' W 074°02'3 2.6
2016-Dec-05 00:33N 40°44' W 074°01'1 1.1
2016-Dec-04 23:33N 40°45' W 074°01'0 0.0
2016-Dec-04 03:25N 40°45' W 074°01'1 0.8
2016-Dec-04 02:33N 40°44' W 074°01'2 2.4
2016-Dec-04 01:33N 40°42' W 074°01'4 4.0
2016-Dec-04 00:33N 40°46' W 074°00'1 1.0
2016-Dec-03 23:33N 40°45' W 074°01'0 0.0
2016-Dec-03 22:34N 40°45' W 074°01'0 0.0
2016-Dec-03 21:33N 40°45' W 074°01'0 0.0
2016-Dec-03 20:33N 40°45' W 074°01'0 0.0
2016-Dec-03 19:33N 40°45' W 074°01'1 0.9
2016-Dec-03 18:34N 40°44' W 074°01'2 2.3
2016-Dec-03 17:34N 40°42' W 074°01'3 3.1
2016-Dec-03 16:34N 40°45' W 074°01'0 0.0
2016-Dec-03 15:34N 40°45' W 074°01'0 0.0
2016-Dec-03 14:34N 40°45' W 074°01'0 0.0
2016-Dec-03 02:23N 40°45' W 074°01'4 4.6
2016-Dec-03 01:34N 40°41' W 074°02'2 2.4
2016-Dec-03 00:33N 40°44' W 074°01'1 1.4
2016-Dec-02 23:34N 40°45' W 074°01'0 0.0
2016-Dec-02 22:34N 40°45' W 074°01'0 0.0
2016-Dec-02 02:26N 40°45' W 074°01'4 4.3
2016-Dec-02 01:34N 40°41' W 074°02'2 2.3
2016-Dec-02 00:33N 40°43' W 074°01'1 1.5
2016-Dec-01 23:34N 40°45' W 074°01'0 0.0
2016-Dec-01 22:33N 40°45' W 074°01'0 0.0
2016-Dec-01 21:34N 40°45' W 074°01'0 0.0
2016-Dec-01 20:33N 40°45' W 074°01'0 0.0
2016-Dec-01 19:33N 40°45' W 074°01'1 1.0
2016-Dec-01 18:34N 40°44' W 074°01'2 1.6
2016-Dec-01 17:34N 40°42' W 074°01'3 2.6
2016-Dec-01 16:34N 40°45' W 074°01'  

Dump ship's entire track history